sensor_id;sensor_type;location;lat;lon;timestamp;P1;durP1;ratioP1;P2;durP2;ratioP2
67508;SDS011;54354;44.724;11.284;2023-06-22T00:01:15;20.83;;;7.53;;
67508;SDS011;54354;44.724;11.284;2023-06-22T00:03:41;23.75;;;8.15;;
67508;SDS011;54354;44.724;11.284;2023-06-22T00:06:06;14.73;;;7.60;;
67508;SDS011;54354;44.724;11.284;2023-06-22T00:08:32;12.73;;;7.32;;
67508;SDS011;54354;44.724;11.284;2023-06-22T00:10:57;13.43;;;7.35;;
67508;SDS011;54354;44.724;11.284;2023-06-22T00:13:23;15.85;;;7.63;;
67508;SDS011;54354;44.724;11.284;2023-06-22T00:15:48;16.48;;;8.00;;
67508;SDS011;54354;44.724;11.284;2023-06-22T00:18:14;15.50;;;8.13;;
67508;SDS011;54354;44.724;11.284;2023-06-22T00:20:41;19.85;;;7.57;;
67508;SDS011;54354;44.724;11.284;2023-06-22T00:23:07;17.73;;;6.80;;
67508;SDS011;54354;44.724;11.284;2023-06-22T00:25:33;18.98;;;7.70;;
67508;SDS011;54354;44.724;11.284;2023-06-22T00:28:08;14.77;;;7.95;;
67508;SDS011;54354;44.724;11.284;2023-06-22T00:30:34;17.17;;;7.53;;
67508;SDS011;54354;44.724;11.284;2023-06-22T00:33:00;14.13;;;7.32;;
67508;SDS011;54354;44.724;11.284;2023-06-22T00:35:26;17.50;;;7.53;;
67508;SDS011;54354;44.724;11.284;2023-06-22T00:37:54;17.88;;;8.82;;
67508;SDS011;54354;44.724;11.284;2023-06-22T00:40:26;17.33;;;8.20;;
67508;SDS011;54354;44.724;11.284;2023-06-22T00:42:52;20.33;;;7.50;;
67508;SDS011;54354;44.724;11.284;2023-06-22T00:45:17;19.50;;;7.70;;
67508;SDS011;54354;44.724;11.284;2023-06-22T00:47:43;16.23;;;8.18;;
67508;SDS011;54354;44.724;11.284;2023-06-22T00:50:09;13.60;;;8.30;;
67508;SDS011;54354;44.724;11.284;2023-06-22T00:52:43;12.75;;;7.70;;
67508;SDS011;54354;44.724;11.284;2023-06-22T00:55:09;16.08;;;10.73;;
67508;SDS011;54354;44.724;11.284;2023-06-22T00:57:35;20.42;;;13.18;;
67508;SDS011;54354;44.724;11.284;2023-06-22T01:00:02;20.08;;;13.20;;
67508;SDS011;54354;44.724;11.284;2023-06-22T01:02:34;20.58;;;13.10;;
67508;SDS011;54354;44.724;11.284;2023-06-22T01:04:59;29.27;;;13.90;;
67508;SDS011;54354;44.724;11.284;2023-06-22T01:09:57;18.60;;;14.23;;
67508;SDS011;54354;44.724;11.284;2023-06-22T01:12:30;18.25;;;12.82;;
67508;SDS011;54354;44.724;11.284;2023-06-22T01:15:10;19.33;;;13.02;;
67508;SDS011;54354;44.724;11.284;2023-06-22T01:17:40;22.40;;;13.60;;
67508;SDS011;54354;44.724;11.284;2023-06-22T01:20:09;25.52;;;13.05;;
67508;SDS011;54354;44.724;11.284;2023-06-22T01:25:28;18.17;;;12.95;;
67508;SDS011;54354;44.724;11.284;2023-06-22T01:33:28;20.45;;;13.43;;
67508;SDS011;54354;44.724;11.284;2023-06-22T01:35:56;19.20;;;12.20;;
67508;SDS011;54354;44.724;11.284;2023-06-22T01:38:22;16.15;;;11.95;;
67508;SDS011;54354;44.724;11.284;2023-06-22T01:40:48;16.40;;;11.93;;
67508;SDS011;54354;44.724;11.284;2023-06-22T01:43:16;22.65;;;11.85;;
67508;SDS011;54354;44.724;11.284;2023-06-22T01:45:42;17.92;;;11.35;;
67508;SDS011;54354;44.724;11.284;2023-06-22T01:48:08;17.45;;;11.98;;
67508;SDS011;54354;44.724;11.284;2023-06-22T01:50:34;17.42;;;12.43;;
67508;SDS011;54354;44.724;11.284;2023-06-22T01:53:00;17.58;;;11.70;;
67508;SDS011;54354;44.724;11.284;2023-06-22T01:55:25;17.38;;;12.00;;
67508;SDS011;54354;44.724;11.284;2023-06-22T01:57:51;19.73;;;12.70;;
67508;SDS011;54354;44.724;11.284;2023-06-22T02:00:20;17.90;;;12.40;;
67508;SDS011;54354;44.724;11.284;2023-06-22T02:02:52;20.63;;;12.80;;
67508;SDS011;54354;44.724;11.284;2023-06-22T02:05:20;18.65;;;13.75;;
67508;SDS011;54354;44.724;11.284;2023-06-22T02:07:56;18.48;;;14.63;;
67508;SDS011;54354;44.724;11.284;2023-06-22T02:10:30;18.52;;;12.70;;
67508;SDS011;54354;44.724;11.284;2023-06-22T02:12:57;20.38;;;13.77;;
67508;SDS011;54354;44.724;11.284;2023-06-22T02:15:24;21.75;;;15.25;;
67508;SDS011;54354;44.724;11.284;2023-06-22T02:17:53;25.83;;;16.23;;
67508;SDS011;54354;44.724;11.284;2023-06-22T02:20:20;26.65;;;15.70;;
67508;SDS011;54354;44.724;11.284;2023-06-22T02:22:46;21.38;;;15.43;;
67508;SDS011;54354;44.724;11.284;2023-06-22T02:25:11;23.83;;;15.80;;
67508;SDS011;54354;44.724;11.284;2023-06-22T02:27:37;21.75;;;15.73;;
67508;SDS011;54354;44.724;11.284;2023-06-22T02:30:06;21.15;;;15.07;;
67508;SDS011;54354;44.724;11.284;2023-06-22T02:32:36;23.75;;;16.60;;
67508;SDS011;54354;44.724;11.284;2023-06-22T02:35:02;20.20;;;14.90;;
67508;SDS011;54354;44.724;11.284;2023-06-22T02:37:31;18.80;;;14.68;;
67508;SDS011;54354;44.724;11.284;2023-06-22T02:39:57;17.08;;;14.50;;
67508;SDS011;54354;44.724;11.284;2023-06-22T02:42:23;20.55;;;16.52;;
67508;SDS011;54354;44.724;11.284;2023-06-22T02:44:49;20.98;;;16.20;;
67508;SDS011;54354;44.724;11.284;2023-06-22T02:47:15;25.98;;;16.23;;
67508;SDS011;54354;44.724;11.284;2023-06-22T02:49:41;25.25;;;16.60;;
67508;SDS011;54354;44.724;11.284;2023-06-22T02:52:07;19.23;;;14.02;;
67508;SDS011;54354;44.724;11.284;2023-06-22T02:54:33;20.13;;;13.80;;
67508;SDS011;54354;44.724;11.284;2023-06-22T02:56:59;18.02;;;13.80;;
67508;SDS011;54354;44.724;11.284;2023-06-22T02:59:28;24.83;;;13.38;;
67508;SDS011;54354;44.724;11.284;2023-06-22T03:02:00;18.02;;;14.93;;
67508;SDS011;54354;44.724;11.284;2023-06-22T03:04:29;19.48;;;15.85;;
67508;SDS011;54354;44.724;11.284;2023-06-22T03:06:56;22.08;;;17.25;;
67508;SDS011;54354;44.724;11.284;2023-06-22T03:09:22;20.13;;;17.25;;
67508;SDS011;54354;44.724;11.284;2023-06-22T03:11:47;24.10;;;16.90;;
67508;SDS011;54354;44.724;11.284;2023-06-22T03:14:13;23.05;;;18.48;;
67508;SDS011;54354;44.724;11.284;2023-06-22T03:16:39;25.70;;;19.35;;
67508;SDS011;54354;44.724;11.284;2023-06-22T03:19:06;21.88;;;18.10;;
67508;SDS011;54354;44.724;11.284;2023-06-22T03:21:31;23.55;;;18.25;;
67508;SDS011;54354;44.724;11.284;2023-06-22T03:23:59;29.45;;;18.38;;
67508;SDS011;54354;44.724;11.284;2023-06-22T03:26:24;27.38;;;19.33;;
67508;SDS011;54354;44.724;11.284;2023-06-22T03:28:52;27.75;;;17.58;;
67508;SDS011;54354;44.724;11.284;2023-06-22T03:31:17;23.65;;;17.45;;
67508;SDS011;54354;44.724;11.284;2023-06-22T03:33:47;28.58;;;18.27;;
67508;SDS011;54354;44.724;11.284;2023-06-22T03:36:15;25.35;;;17.55;;
67508;SDS011;54354;44.724;11.284;2023-06-22T03:38:48;25.13;;;17.55;;
67508;SDS011;54354;44.724;11.284;2023-06-22T03:41:14;24.45;;;17.42;;
67508;SDS011;54354;44.724;11.284;2023-06-22T03:43:41;23.98;;;17.65;;
67508;SDS011;54354;44.724;11.284;2023-06-22T03:46:06;26.30;;;18.58;;
67508;SDS011;54354;44.724;11.284;2023-06-22T03:48:32;26.05;;;17.83;;
67508;SDS011;54354;44.724;11.284;2023-06-22T03:50:59;30.80;;;17.63;;
67508;SDS011;54354;44.724;11.284;2023-06-22T03:53:25;24.02;;;17.98;;
67508;SDS011;54354;44.724;11.284;2023-06-22T03:55:51;27.88;;;18.85;;
67508;SDS011;54354;44.724;11.284;2023-06-22T03:58:17;23.30;;;18.08;;
67508;SDS011;54354;44.724;11.284;2023-06-22T04:00:45;24.65;;;18.25;;
67508;SDS011;54354;44.724;11.284;2023-06-22T04:03:14;28.60;;;18.55;;
67508;SDS011;54354;44.724;11.284;2023-06-22T04:05:40;28.10;;;18.55;;
67508;SDS011;54354;44.724;11.284;2023-06-22T04:08:06;28.15;;;18.77;;
67508;SDS011;54354;44.724;11.284;2023-06-22T04:10:32;30.52;;;19.65;;
67508;SDS011;54354;44.724;11.284;2023-06-22T04:12:57;30.10;;;20.48;;
67508;SDS011;54354;44.724;11.284;2023-06-22T04:15:23;21.48;;;17.70;;
67508;SDS011;54354;44.724;11.284;2023-06-22T04:17:48;26.42;;;19.42;;
67508;SDS011;54354;44.724;11.284;2023-06-22T04:20:14;23.58;;;19.35;;
67508;SDS011;54354;44.724;11.284;2023-06-22T04:22:39;27.80;;;20.08;;
67508;SDS011;54354;44.724;11.284;2023-06-22T04:25:05;31.30;;;20.35;;
67508;SDS011;54354;44.724;11.284;2023-06-22T04:27:32;29.58;;;21.58;;
67508;SDS011;54354;44.724;11.284;2023-06-22T04:30:05;26.70;;;20.35;;
67508;SDS011;54354;44.724;11.284;2023-06-22T04:32:32;26.50;;;20.20;;
67508;SDS011;54354;44.724;11.284;2023-06-22T04:35:04;28.65;;;21.17;;
67508;SDS011;54354;44.724;11.284;2023-06-22T04:37:31;27.42;;;19.63;;
67508;SDS011;54354;44.724;11.284;2023-06-22T04:39:57;34.70;;;21.42;;
67508;SDS011;54354;44.724;11.284;2023-06-22T04:42:23;27.30;;;20.17;;
67508;SDS011;54354;44.724;11.284;2023-06-22T04:44:50;32.97;;;18.67;;
67508;SDS011;54354;44.724;11.284;2023-06-22T04:47:16;29.63;;;19.52;;
67508;SDS011;54354;44.724;11.284;2023-06-22T04:49:42;34.35;;;20.50;;
67508;SDS011;54354;44.724;11.284;2023-06-22T04:52:09;26.30;;;20.23;;
67508;SDS011;54354;44.724;11.284;2023-06-22T04:54:36;30.73;;;21.48;;
67508;SDS011;54354;44.724;11.284;2023-06-22T04:57:05;29.17;;;21.15;;
67508;SDS011;54354;44.724;11.284;2023-06-22T04:59:35;32.47;;;21.60;;
67508;SDS011;54354;44.724;11.284;2023-06-22T05:02:01;29.77;;;23.58;;
67508;SDS011;54354;44.724;11.284;2023-06-22T05:04:28;31.42;;;23.15;;
67508;SDS011;54354;44.724;11.284;2023-06-22T05:06:56;29.02;;;22.02;;
67508;SDS011;54354;44.724;11.284;2023-06-22T05:09:23;32.67;;;22.50;;
67508;SDS011;54354;44.724;11.284;2023-06-22T05:11:50;29.70;;;22.65;;
67508;SDS011;54354;44.724;11.284;2023-06-22T05:14:16;30.13;;;21.95;;
67508;SDS011;54354;44.724;11.284;2023-06-22T05:16:42;29.05;;;22.58;;
67508;SDS011;54354;44.724;11.284;2023-06-22T05:19:08;30.85;;;21.88;;
67508;SDS011;54354;44.724;11.284;2023-06-22T05:21:34;26.65;;;21.80;;
67508;SDS011;54354;44.724;11.284;2023-06-22T05:23:59;33.35;;;22.80;;
67508;SDS011;54354;44.724;11.284;2023-06-22T05:26:28;31.20;;;23.58;;
67508;SDS011;54354;44.724;11.284;2023-06-22T05:28:55;35.88;;;24.67;;
67508;SDS011;54354;44.724;11.284;2023-06-22T05:31:21;35.25;;;25.65;;
67508;SDS011;54354;44.724;11.284;2023-06-22T05:33:47;31.90;;;26.40;;
67508;SDS011;54354;44.724;11.284;2023-06-22T05:36:14;39.63;;;26.88;;
67508;SDS011;54354;44.724;11.284;2023-06-22T05:38:40;31.13;;;27.45;;
67508;SDS011;54354;44.724;11.284;2023-06-22T05:41:06;39.38;;;27.45;;
67508;SDS011;54354;44.724;11.284;2023-06-22T05:43:32;40.63;;;27.02;;
67508;SDS011;54354;44.724;11.284;2023-06-22T05:45:57;35.50;;;26.35;;
67508;SDS011;54354;44.724;11.284;2023-06-22T05:48:23;29.63;;;25.52;;
67508;SDS011;54354;44.724;11.284;2023-06-22T05:50:49;33.40;;;25.73;;
67508;SDS011;54354;44.724;11.284;2023-06-22T05:53:15;33.67;;;25.63;;
67508;SDS011;54354;44.724;11.284;2023-06-22T05:55:40;36.22;;;25.70;;
67508;SDS011;54354;44.724;11.284;2023-06-22T05:58:06;31.02;;;22.80;;
67508;SDS011;54354;44.724;11.284;2023-06-22T06:00:31;36.38;;;25.38;;
67508;SDS011;54354;44.724;11.284;2023-06-22T06:02:58;32.72;;;25.45;;
67508;SDS011;54354;44.724;11.284;2023-06-22T06:05:31;36.92;;;25.60;;
67508;SDS011;54354;44.724;11.284;2023-06-22T06:07:57;34.80;;;23.70;;
67508;SDS011;54354;44.724;11.284;2023-06-22T06:10:24;36.83;;;23.55;;
67508;SDS011;54354;44.724;11.284;2023-06-22T06:12:50;37.13;;;25.67;;
67508;SDS011;54354;44.724;11.284;2023-06-22T06:15:16;36.33;;;24.02;;
67508;SDS011;54354;44.724;11.284;2023-06-22T06:17:45;31.95;;;24.67;;
67508;SDS011;54354;44.724;11.284;2023-06-22T06:20:14;33.78;;;26.15;;
67508;SDS011;54354;44.724;11.284;2023-06-22T06:22:41;38.58;;;25.17;;
67508;SDS011;54354;44.724;11.284;2023-06-22T06:25:08;22.45;;;13.05;;
67508;SDS011;54354;44.724;11.284;2023-06-22T06:27:34;84.68;;;24.23;;
67508;SDS011;54354;44.724;11.284;2023-06-22T06:29:59;29.95;;;21.33;;
67508;SDS011;54354;44.724;11.284;2023-06-22T06:32:25;29.25;;;21.60;;
67508;SDS011;54354;44.724;11.284;2023-06-22T06:34:50;30.60;;;18.17;;
67508;SDS011;54354;44.724;11.284;2023-06-22T06:37:16;29.70;;;19.13;;
67508;SDS011;54354;44.724;11.284;2023-06-22T06:39:43;30.98;;;19.45;;
67508;SDS011;54354;44.724;11.284;2023-06-22T06:42:09;33.75;;;16.55;;
67508;SDS011;54354;44.724;11.284;2023-06-22T06:44:36;30.88;;;20.58;;
67508;SDS011;54354;44.724;11.284;2023-06-22T06:47:03;34.40;;;22.83;;
67508;SDS011;54354;44.724;11.284;2023-06-22T06:49:29;33.50;;;20.77;;
67508;SDS011;54354;44.724;11.284;2023-06-22T06:51:55;27.00;;;21.90;;
67508;SDS011;54354;44.724;11.284;2023-06-22T06:54:21;28.55;;;20.52;;
67508;SDS011;54354;44.724;11.284;2023-06-22T06:56:47;47.53;;;18.85;;
67508;SDS011;54354;44.724;11.284;2023-06-22T06:59:13;31.90;;;16.80;;
67508;SDS011;54354;44.724;11.284;2023-06-22T07:01:41;28.83;;;17.85;;
67508;SDS011;54354;44.724;11.284;2023-06-22T07:04:07;25.42;;;16.85;;
67508;SDS011;54354;44.724;11.284;2023-06-22T07:06:32;32.63;;;14.25;;
67508;SDS011;54354;44.724;11.284;2023-06-22T07:08:59;29.25;;;13.95;;
67508;SDS011;54354;44.724;11.284;2023-06-22T07:11:25;25.35;;;14.45;;
67508;SDS011;54354;44.724;11.284;2023-06-22T07:13:50;30.50;;;21.50;;
67508;SDS011;54354;44.724;11.284;2023-06-22T07:16:16;28.90;;;13.82;;
67508;SDS011;54354;44.724;11.284;2023-06-22T07:18:42;25.23;;;14.43;;
67508;SDS011;54354;44.724;11.284;2023-06-22T07:21:07;26.20;;;11.40;;
67508;SDS011;54354;44.724;11.284;2023-06-22T07:23:33;25.23;;;16.17;;
67508;SDS011;54354;44.724;11.284;2023-06-22T07:25:58;26.63;;;15.13;;
67508;SDS011;54354;44.724;11.284;2023-06-22T07:28:27;20.92;;;11.25;;
67508;SDS011;54354;44.724;11.284;2023-06-22T07:30:53;25.92;;;18.73;;
67508;SDS011;54354;44.724;11.284;2023-06-22T07:33:18;20.35;;;14.38;;
67508;SDS011;54354;44.724;11.284;2023-06-22T07:35:44;22.60;;;15.02;;
67508;SDS011;54354;44.724;11.284;2023-06-22T07:38:10;20.42;;;12.45;;
67508;SDS011;54354;44.724;11.284;2023-06-22T07:40:36;19.83;;;11.15;;
67508;SDS011;54354;44.724;11.284;2023-06-22T07:43:02;18.65;;;13.25;;
67508;SDS011;54354;44.724;11.284;2023-06-22T07:45:28;23.80;;;16.73;;
67508;SDS011;54354;44.724;11.284;2023-06-22T07:47:54;19.25;;;10.00;;
67508;SDS011;54354;44.724;11.284;2023-06-22T07:50:20;15.90;;;10.52;;
67508;SDS011;54354;44.724;11.284;2023-06-22T07:52:45;20.52;;;12.13;;
67508;SDS011;54354;44.724;11.284;2023-06-22T07:55:13;17.42;;;10.25;;
67508;SDS011;54354;44.724;11.284;2023-06-22T07:57:38;14.52;;;9.68;;
67508;SDS011;54354;44.724;11.284;2023-06-22T08:00:05;21.90;;;11.13;;
67508;SDS011;54354;44.724;11.284;2023-06-22T08:02:42;16.52;;;8.88;;
67508;SDS011;54354;44.724;11.284;2023-06-22T08:05:10;14.73;;;9.60;;
67508;SDS011;54354;44.724;11.284;2023-06-22T08:07:37;13.70;;;10.15;;
67508;SDS011;54354;44.724;11.284;2023-06-22T08:10:04;16.88;;;11.77;;
67508;SDS011;54354;44.724;11.284;2023-06-22T08:12:30;15.07;;;9.52;;
67508;SDS011;54354;44.724;11.284;2023-06-22T08:14:56;11.15;;;8.35;;
67508;SDS011;54354;44.724;11.284;2023-06-22T08:17:23;12.88;;;9.15;;
67508;SDS011;54354;44.724;11.284;2023-06-22T08:19:49;13.13;;;10.13;;
67508;SDS011;54354;44.724;11.284;2023-06-22T08:22:15;15.15;;;10.25;;
67508;SDS011;54354;44.724;11.284;2023-06-22T08:24:41;14.45;;;9.35;;
67508;SDS011;54354;44.724;11.284;2023-06-22T08:27:07;19.92;;;12.02;;
67508;SDS011;54354;44.724;11.284;2023-06-22T08:29:41;13.88;;;9.10;;
67508;SDS011;54354;44.724;11.284;2023-06-22T08:32:10;13.23;;;9.73;;
67508;SDS011;54354;44.724;11.284;2023-06-22T08:34:36;10.77;;;8.07;;
67508;SDS011;54354;44.724;11.284;2023-06-22T08:37:02;12.15;;;8.73;;
67508;SDS011;54354;44.724;11.284;2023-06-22T08:39:31;12.55;;;9.48;;
67508;SDS011;54354;44.724;11.284;2023-06-22T08:41:57;12.07;;;8.90;;
67508;SDS011;54354;44.724;11.284;2023-06-22T08:44:23;10.73;;;8.32;;
67508;SDS011;54354;44.724;11.284;2023-06-22T08:46:48;16.95;;;8.45;;
67508;SDS011;54354;44.724;11.284;2023-06-22T08:49:14;13.52;;;9.93;;
67508;SDS011;54354;44.724;11.284;2023-06-22T08:51:40;15.93;;;8.15;;
67508;SDS011;54354;44.724;11.284;2023-06-22T08:54:05;11.48;;;8.88;;
67508;SDS011;54354;44.724;11.284;2023-06-22T08:56:31;15.07;;;7.75;;
67508;SDS011;54354;44.724;11.284;2023-06-22T08:58:56;17.00;;;8.45;;
67508;SDS011;54354;44.724;11.284;2023-06-22T09:01:22;20.60;;;8.50;;
67508;SDS011;54354;44.724;11.284;2023-06-22T09:03:48;15.65;;;8.52;;
67508;SDS011;54354;44.724;11.284;2023-06-22T09:06:20;12.88;;;9.00;;
67508;SDS011;54354;44.724;11.284;2023-06-22T09:08:46;17.83;;;11.35;;
67508;SDS011;54354;44.724;11.284;2023-06-22T09:11:12;24.40;;;11.90;;
67508;SDS011;54354;44.724;11.284;2023-06-22T09:13:38;25.40;;;10.55;;
67508;SDS011;54354;44.724;11.284;2023-06-22T09:16:04;9.75;;;8.02;;
67508;SDS011;54354;44.724;11.284;2023-06-22T09:18:29;12.93;;;8.75;;
67508;SDS011;54354;44.724;11.284;2023-06-22T09:20:55;10.00;;;8.00;;
67508;SDS011;54354;44.724;11.284;2023-06-22T09:23:21;21.42;;;11.43;;
67508;SDS011;54354;44.724;11.284;2023-06-22T09:25:47;13.93;;;8.52;;
67508;SDS011;54354;44.724;11.284;2023-06-22T09:28:13;12.38;;;8.73;;
67508;SDS011;54354;44.724;11.284;2023-06-22T09:30:45;11.68;;;8.45;;
67508;SDS011;54354;44.724;11.284;2023-06-22T09:33:10;13.67;;;8.63;;
67508;SDS011;54354;44.724;11.284;2023-06-22T09:35:36;12.48;;;8.77;;
67508;SDS011;54354;44.724;11.284;2023-06-22T09:38:02;10.02;;;8.27;;
67508;SDS011;54354;44.724;11.284;2023-06-22T09:40:27;23.95;;;11.25;;
67508;SDS011;54354;44.724;11.284;2023-06-22T09:42:53;13.43;;;9.55;;
67508;SDS011;54354;44.724;11.284;2023-06-22T09:45:18;17.50;;;10.68;;
67508;SDS011;54354;44.724;11.284;2023-06-22T09:47:44;11.95;;;8.52;;
67508;SDS011;54354;44.724;11.284;2023-06-22T09:50:09;13.27;;;8.05;;
67508;SDS011;54354;44.724;11.284;2023-06-22T09:52:35;15.02;;;8.93;;
67508;SDS011;54354;44.724;11.284;2023-06-22T09:55:00;15.18;;;10.25;;
67508;SDS011;54354;44.724;11.284;2023-06-22T09:57:26;12.20;;;8.57;;
67508;SDS011;54354;44.724;11.284;2023-06-22T09:59:51;13.82;;;8.50;;
67508;SDS011;54354;44.724;11.284;2023-06-22T10:02:17;10.07;;;8.57;;
67508;SDS011;54354;44.724;11.284;2023-06-22T10:04:42;11.45;;;9.02;;
67508;SDS011;54354;44.724;11.284;2023-06-22T10:07:08;10.60;;;8.48;;
67508;SDS011;54354;44.724;11.284;2023-06-22T10:09:33;14.13;;;8.57;;
67508;SDS011;54354;44.724;11.284;2023-06-22T10:11:59;15.15;;;8.77;;
67508;SDS011;54354;44.724;11.284;2023-06-22T10:14:25;9.40;;;8.32;;
67508;SDS011;54354;44.724;11.284;2023-06-22T10:16:52;11.85;;;8.68;;
67508;SDS011;54354;44.724;11.284;2023-06-22T10:19:18;11.90;;;8.63;;
67508;SDS011;54354;44.724;11.284;2023-06-22T10:21:43;14.60;;;8.30;;
67508;SDS011;54354;44.724;11.284;2023-06-22T10:24:09;20.35;;;8.20;;
67508;SDS011;54354;44.724;11.284;2023-06-22T10:26:35;15.20;;;8.07;;
67508;SDS011;54354;44.724;11.284;2023-06-22T10:29:02;14.27;;;9.07;;
67508;SDS011;54354;44.724;11.284;2023-06-22T10:31:28;12.07;;;8.45;;
67508;SDS011;54354;44.724;11.284;2023-06-22T10:33:54;10.25;;;8.10;;
67508;SDS011;54354;44.724;11.284;2023-06-22T10:36:21;13.23;;;8.00;;
67508;SDS011;54354;44.724;11.284;2023-06-22T10:38:47;12.50;;;8.25;;
67508;SDS011;54354;44.724;11.284;2023-06-22T10:41:13;11.80;;;7.93;;
67508;SDS011;54354;44.724;11.284;2023-06-22T10:43:39;17.42;;;8.32;;
67508;SDS011;54354;44.724;11.284;2023-06-22T10:46:06;11.07;;;8.65;;
67508;SDS011;54354;44.724;11.284;2023-06-22T10:48:31;15.50;;;7.60;;
67508;SDS011;54354;44.724;11.284;2023-06-22T10:50:57;16.48;;;8.20;;
67508;SDS011;54354;44.724;11.284;2023-06-22T10:53:23;12.52;;;8.00;;
67508;SDS011;54354;44.724;11.284;2023-06-22T10:55:48;13.32;;;8.63;;
67508;SDS011;54354;44.724;11.284;2023-06-22T10:58:14;14.57;;;8.38;;
67508;SDS011;54354;44.724;11.284;2023-06-22T11:00:39;14.90;;;7.68;;
67508;SDS011;54354;44.724;11.284;2023-06-22T11:03:05;16.35;;;8.73;;
67508;SDS011;54354;44.724;11.284;2023-06-22T11:05:31;11.77;;;8.10;;
67508;SDS011;54354;44.724;11.284;2023-06-22T11:07:57;10.65;;;7.93;;
67508;SDS011;54354;44.724;11.284;2023-06-22T11:10:22;10.30;;;7.85;;
67508;SDS011;54354;44.724;11.284;2023-06-22T11:12:48;10.70;;;7.70;;
67508;SDS011;54354;44.724;11.284;2023-06-22T11:15:13;18.02;;;7.90;;
67508;SDS011;54354;44.724;11.284;2023-06-22T11:17:39;11.80;;;7.88;;
67508;SDS011;54354;44.724;11.284;2023-06-22T11:20:05;11.80;;;7.45;;
67508;SDS011;54354;44.724;11.284;2023-06-22T11:22:36;14.73;;;7.43;;
67508;SDS011;54354;44.724;11.284;2023-06-22T11:25:05;11.98;;;7.18;;
67508;SDS011;54354;44.724;11.284;2023-06-22T11:27:31;11.32;;;7.93;;
67508;SDS011;54354;44.724;11.284;2023-06-22T11:29:57;12.27;;;7.55;;
67508;SDS011;54354;44.724;11.284;2023-06-22T11:32:23;10.27;;;7.38;;
67508;SDS011;54354;44.724;11.284;2023-06-22T11:34:48;12.48;;;7.72;;
67508;SDS011;54354;44.724;11.284;2023-06-22T11:37:14;8.93;;;7.22;;
67508;SDS011;54354;44.724;11.284;2023-06-22T11:39:40;12.02;;;7.03;;
67508;SDS011;54354;44.724;11.284;2023-06-22T11:42:07;10.65;;;7.65;;
67508;SDS011;54354;44.724;11.284;2023-06-22T11:44:33;13.23;;;7.65;;
67508;SDS011;54354;44.724;11.284;2023-06-22T11:46:58;11.55;;;7.13;;
67508;SDS011;54354;44.724;11.284;2023-06-22T11:49:26;12.32;;;7.38;;
67508;SDS011;54354;44.724;11.284;2023-06-22T11:51:52;9.13;;;6.78;;
67508;SDS011;54354;44.724;11.284;2023-06-22T11:54:18;14.95;;;7.75;;
67508;SDS011;54354;44.724;11.284;2023-06-22T11:56:44;14.60;;;6.57;;
67508;SDS011;54354;44.724;11.284;2023-06-22T11:59:09;17.45;;;6.97;;
67508;SDS011;54354;44.724;11.284;2023-06-22T12:01:35;14.23;;;7.30;;
67508;SDS011;54354;44.724;11.284;2023-06-22T12:04:00;16.50;;;7.25;;
67508;SDS011;54354;44.724;11.284;2023-06-22T12:06:26;12.30;;;7.43;;
67508;SDS011;54354;44.724;11.284;2023-06-22T12:08:51;12.43;;;6.38;;
67508;SDS011;54354;44.724;11.284;2023-06-22T12:11:17;13.30;;;6.80;;
67508;SDS011;54354;44.724;11.284;2023-06-22T12:13:42;12.98;;;7.03;;
67508;SDS011;54354;44.724;11.284;2023-06-22T12:16:08;11.35;;;6.65;;
67508;SDS011;54354;44.724;11.284;2023-06-22T12:18:33;10.00;;;6.75;;
67508;SDS011;54354;44.724;11.284;2023-06-22T12:20:59;14.13;;;6.10;;
67508;SDS011;54354;44.724;11.284;2023-06-22T12:23:24;9.63;;;7.25;;
67508;SDS011;54354;44.724;11.284;2023-06-22T12:25:50;11.60;;;6.18;;
67508;SDS011;54354;44.724;11.284;2023-06-22T12:28:15;11.07;;;7.07;;
67508;SDS011;54354;44.724;11.284;2023-06-22T12:30:41;9.80;;;6.95;;
67508;SDS011;54354;44.724;11.284;2023-06-22T12:33:07;9.60;;;7.00;;
67508;SDS011;54354;44.724;11.284;2023-06-22T12:35:33;10.15;;;5.57;;
67508;SDS011;54354;44.724;11.284;2023-06-22T12:37:58;10.32;;;7.05;;
67508;SDS011;54354;44.724;11.284;2023-06-22T12:40:24;8.98;;;6.85;;
67508;SDS011;54354;44.724;11.284;2023-06-22T12:42:49;11.45;;;6.78;;
67508;SDS011;54354;44.724;11.284;2023-06-22T12:45:15;11.85;;;7.28;;
67508;SDS011;54354;44.724;11.284;2023-06-22T12:47:40;10.00;;;7.40;;
67508;SDS011;54354;44.724;11.284;2023-06-22T12:50:06;12.55;;;6.82;;
67508;SDS011;54354;44.724;11.284;2023-06-22T12:52:32;9.50;;;6.88;;
67508;SDS011;54354;44.724;11.284;2023-06-22T12:54:58;11.95;;;7.80;;
67508;SDS011;54354;44.724;11.284;2023-06-22T12:57:23;9.07;;;7.70;;
67508;SDS011;54354;44.724;11.284;2023-06-22T12:59:49;11.75;;;7.88;;
67508;SDS011;54354;44.724;11.284;2023-06-22T13:02:14;10.00;;;7.63;;
67508;SDS011;54354;44.724;11.284;2023-06-22T13:04:40;9.60;;;7.82;;
67508;SDS011;54354;44.724;11.284;2023-06-22T13:07:06;11.65;;;7.25;;
67508;SDS011;54354;44.724;11.284;2023-06-22T13:09:31;17.20;;;7.65;;
67508;SDS011;54354;44.724;11.284;2023-06-22T13:11:57;9.90;;;7.25;;
67508;SDS011;54354;44.724;11.284;2023-06-22T13:14:22;10.65;;;6.47;;
67508;SDS011;54354;44.724;11.284;2023-06-22T13:16:49;14.13;;;6.97;;
67508;SDS011;54354;44.724;11.284;2023-06-22T13:19:15;11.75;;;6.50;;
67508;SDS011;54354;44.724;11.284;2023-06-22T13:21:40;9.40;;;6.75;;
67508;SDS011;54354;44.724;11.284;2023-06-22T13:24:06;11.30;;;6.85;;
67508;SDS011;54354;44.724;11.284;2023-06-22T13:26:31;7.47;;;6.68;;
67508;SDS011;54354;44.724;11.284;2023-06-22T13:28:57;7.68;;;6.47;;
67508;SDS011;54354;44.724;11.284;2023-06-22T13:31:23;11.43;;;6.20;;
67508;SDS011;54354;44.724;11.284;2023-06-22T13:33:48;10.52;;;6.80;;
67508;SDS011;54354;44.724;11.284;2023-06-22T13:36:17;13.85;;;5.85;;
67508;SDS011;54354;44.724;11.284;2023-06-22T13:38:43;10.95;;;6.85;;
67508;SDS011;54354;44.724;11.284;2023-06-22T13:41:08;11.48;;;6.10;;
67508;SDS011;54354;44.724;11.284;2023-06-22T13:43:34;9.65;;;6.65;;
67508;SDS011;54354;44.724;11.284;2023-06-22T13:45:59;14.15;;;7.00;;
67508;SDS011;54354;44.724;11.284;2023-06-22T13:48:25;8.52;;;6.70;;
67508;SDS011;54354;44.724;11.284;2023-06-22T13:50:51;8.63;;;5.25;;
67508;SDS011;54354;44.724;11.284;2023-06-22T13:53:17;8.00;;;6.15;;
67508;SDS011;54354;44.724;11.284;2023-06-22T13:55:43;10.95;;;7.38;;
67508;SDS011;54354;44.724;11.284;2023-06-22T13:58:08;10.95;;;6.97;;
67508;SDS011;54354;44.724;11.284;2023-06-22T14:00:34;11.73;;;6.88;;
67508;SDS011;54354;44.724;11.284;2023-06-22T14:02:59;8.52;;;6.85;;
67508;SDS011;54354;44.724;11.284;2023-06-22T14:05:25;9.40;;;6.88;;
67508;SDS011;54354;44.724;11.284;2023-06-22T14:07:50;9.57;;;6.70;;
67508;SDS011;54354;44.724;11.284;2023-06-22T14:10:16;12.60;;;5.75;;
67508;SDS011;54354;44.724;11.284;2023-06-22T14:12:41;10.65;;;6.20;;
67508;SDS011;54354;44.724;11.284;2023-06-22T14:15:07;9.48;;;5.80;;
67508;SDS011;54354;44.724;11.284;2023-06-22T14:17:33;8.98;;;6.32;;
67508;SDS011;54354;44.724;11.284;2023-06-22T14:19:58;16.63;;;5.05;;
67508;SDS011;54354;44.724;11.284;2023-06-22T14:22:23;12.13;;;6.30;;